ADDS METAR Data INFO
IDs: Format: Raw Decoded Include TAF

Data at: 1453 UTC 11 Dec 2017

K21D 111435Z AUTO 00000KT 2SM -SN BKN009 BKN014 M01/M02 A2973 RMK AO2 P0001
K21D 111415Z AUTO 00000KT 3/4SM -SN OVC009 M01/M02 A2973 RMK AO2
K21D 111355Z AUTO 00000KT 3SM -SN BKN024 BKN029 OVC034 M01/M02 A2972 RMK AO2
K21D 111335Z AUTO 19004KT 7SM UP SCT017 SCT027 OVC034 M02/M02 A2972 RMK AO2
K21D 111315Z AUTO 18007KT 3SM -SN SCT019 OVC025 M02/M03 A2972 RMK AO2
K21D 111255Z AUTO 17004KT 10SM BKN028 OVC032 M02/M03 A2972 RMK AO2
K21D 111235Z AUTO 16003KT 10SM BKN028 BKN043 M02/M03 A2974 RMK AO2
K21D 111215Z AUTO 00000KT 10SM SCT030 SCT043 BKN050 M02/M03 A2974 RMK AO2
K21D 111155Z AUTO 17004KT 10SM OVC050 M02/M03 A2975 RMK AO2
K21D 111135Z AUTO 17006KT 10SM OVC050 M02/M03 A2975 RMK AO2
K21D 111115Z AUTO 17007KT 10SM SCT036 OVC050 M02/M03 A2976 RMK AO2
K21D 111055Z AUTO 17006KT 10SM OVC036 M02/M03 A2978 RMK AO2
K21D 111035Z AUTO 16006KT 10SM OVC036 M02/M03 A2978 RMK AO2
K21D 111015Z AUTO 16007KT 10SM OVC036 M02/M03 A2979 RMK AO2
K21D 110955Z AUTO 16007KT 10SM SCT016 OVC038 M02/M03 A2981 RMK AO2
K21D 110935Z AUTO 17007KT 10SM BKN016 BKN027 BKN038 M03/M03 A2983 RMK AO2
K21D 110915Z AUTO 17008KT 7SM SCT007 SCT018 SCT027 M03/M03 A2983 RMK AO2
K21D 110855Z AUTO 18006KT 7SM -SN SCT007 SCT011 BKN021 M03/M04 A2985 RMK AO2
K21D 110835Z AUTO 16005KT 4SM -SN CLR M03/M04 A2986 RMK AO2
K21D 110815Z AUTO 15007KT 1 3/4SM -SN VV007 M03/M04 A2986 RMK AO2
K21D 110755Z AUTO 17005KT 1 3/4SM -SN SCT013 M03/M04 A2989 RMK AO2 P0001
K21D 110735Z AUTO 16006KT 2SM -SN BKN011 M03/M05 A2990 RMK AO2
K21D 110715Z AUTO 18005KT 1 1/4SM -SN OVC011 M03/M05 A2991 RMK AO2
K21D 110655Z AUTO 17005KT 2SM -SN BKN013 BKN019 OVC036 M03/M05 A2992 RMK AO2
K21D 110635Z AUTO 18005KT 10SM SCT030 BKN038 BKN050 M03/M05 A2993 RMK AO2
K21D 110615Z AUTO 16005KT 10SM CLR M03/M05 A2993 RMK AO2
K21D 110555Z AUTO 17005KT 10SM SCT075 M03/M05 A2994 RMK AO2
K21D 110535Z AUTO 17006KT 10SM BKN075 BKN090 M04/M05 A2996 RMK AO2
K21D 110515Z AUTO 17006KT 10SM SCT075 M04/M06 A2997 RMK AO2
K21D 110455Z AUTO 17003KT 10SM BKN075 M05/M06 A2998 RMK AO2
K21D 110435Z AUTO 00000KT 10SM OVC075 M05/M06 A2999 RMK AO2
K21D 110415Z AUTO 00000KT 10SM BKN075 M06/M07 A3000 RMK AO2
K21D 110355Z AUTO 00000KT 10SM CLR M07/M07 A3000 RMK AO2
K21D 110336Z AUTO 00000KT 10SM CLR M06/M07 A3001 RMK AO2
K21D 110315Z AUTO 00000KT 10SM CLR M08/M10 A3001 RMK AO2
K21D 110255Z AUTO 00000KT 10SM CLR M08/M09 A3001 RMK AO2
K21D 110235Z AUTO 00000KT 10SM CLR M08/M09 A3002 RMK AO2
K21D 110215Z AUTO 00000KT 10SM CLR M08/M09 A3003 RMK AO2
K21D 110155Z AUTO 00000KT 10SM CLR M08/M09 A3003 RMK AO2
K21D 110135Z AUTO 00000KT 10SM CLR M07/M08 A3004 RMK AO2
K21D 110115Z AUTO 00000KT 10SM CLR M07/M08 A3004 RMK AO2
K21D 110055Z AUTO 00000KT 10SM CLR M07/M08 A3005 RMK AO2
K21D 110035Z AUTO 00000KT 10SM CLR M07/M08 A3005 RMK AO2
K21D 110015Z AUTO 00000KT 10SM CLR M06/M08 A3005 RMK AO2
K21D 102356Z AUTO 00000KT 10SM CLR M06/M08 A3005 RMK AO2
K21D 102335Z AUTO 00000KT 10SM CLR M05/M07 A3006 RMK AO2
K21D 102315Z AUTO 00000KT 10SM CLR M03/M06 A3006 RMK AO2
K21D 102255Z AUTO 00000KT 10SM SCT022 M03/M06 A3005 RMK AO2
K21D 102235Z AUTO 28003KT 10SM BKN022 M02/M06 A3005 RMK AO2
K21D 102215Z AUTO 00000KT 10SM OVC022 M01/M05 A3004 RMK AO2
K21D 102155Z AUTO 29006KT 10SM BKN022 M01/M05 A3004 RMK AO2
K21D 102135Z AUTO 31005KT 10SM SCT022 M01/M06 A3003 RMK AO2
K21D 102115Z AUTO 31004KT 10SM BKN022 M01/M05 A3002 RMK AO2
K21D 102055Z AUTO 29003KT 10SM SCT022 M02/M06 A3002 RMK AO2
K21D 102035Z AUTO 32003KT 10SM SCT022 M01/M06 A3001 RMK AO2
K21D 102015Z AUTO 31006KT 10SM BKN022 M01/M05 A3002 RMK AO2
K21D 101955Z AUTO 30006KT 10SM OVC020 M01/M05 A3001 RMK AO2
K21D 101935Z AUTO 29007KT 10SM OVC020 M01/M05 A3001 RMK AO2
K21D 101915Z AUTO 30007KT 10SM OVC018 M01/M05 A3001 RMK AO2
K21D 101855Z AUTO 32008KT 10SM OVC018 M01/M05 A3002 RMK AO2
K21D 101835Z AUTO 34007KT 10SM OVC018 M02/M06 A3001 RMK AO2
K21D 101815Z AUTO 34006KT 10SM OVC018 M02/M05 A3000 RMK AO2
K21D 101755Z AUTO 33008KT 10SM OVC018 M02/M05 A2999 RMK AO2
K21D 101735Z AUTO 34008KT 10SM OVC018 M02/M05 A2999 RMK AO2
K21D 101715Z AUTO 33008KT 10SM OVC016 M02/M05 A3000 RMK AO2
K21D 101655Z AUTO 33008KT 10SM OVC016 M02/M05 A3000 RMK AO2
K21D 101635Z AUTO 32006KT 10SM OVC018 M02/M05 A3000 RMK AO2
K21D 101615Z AUTO 31008KT 10SM OVC020 M02/M05 A2999 RMK AO2
K21D 101555Z AUTO 31006KT 10SM OVC022 M02/M05 A2997 RMK AO2
K21D 101535Z AUTO 31006KT 10SM OVC022 M03/M05 A2997 RMK AO2
K21D 101515Z AUTO 30004KT 10SM OVC022 M03/M05 A2996 RMK AO2
K21D 101455Z AUTO 30005KT 10SM OVC024 M03/M06 A2995 RMK AO2
K21D 101435Z AUTO 31004KT 10SM OVC024 M03/M06 A2994 RMK AO2
K21D 101415Z AUTO 31005KT 10SM OVC024 M04/M06 A2993 RMK AO2
K21D 101356Z AUTO 31005KT 10SM OVC024 M04/M06 A2993 RMK AO2
K21D 101335Z AUTO 32005KT 10SM OVC024 M05/M06 A2991 RMK AO2
K21D 101315Z AUTO 33006KT 10SM OVC024 M05/M06 A2990 RMK AO2
K21D 101255Z AUTO 33005KT 10SM OVC024 M05/M06 A2990 RMK AO2
K21D 101235Z AUTO 34007KT 10SM OVC024 M05/M06 A2989 RMK AO2
K21D 101215Z AUTO 34007KT 10SM OVC026 M05/M06 A2989 RMK AO2
K21D 101155Z AUTO 33008KT 10SM SCT026 M05/M06 A2987 RMK AO2
K21D 101135Z AUTO 33007KT 10SM CLR M05/M06 A2986 RMK AO2
K21D 101115Z AUTO 32003KT 10SM CLR M08/M09 A2985 RMK AO2
K21D 101055Z AUTO 00000KT 10SM CLR M10/M11 A2983 RMK AO2
K21D 101035Z AUTO 00000KT 10SM CLR M10/M11 A2983 RMK AO2
K21D 101015Z AUTO 00000KT 10SM CLR M11/M12 A2982 RMK AO2
K21D 100955Z AUTO 00000KT 10SM CLR M10/M11 A2982 RMK AO2
K21D 100935Z AUTO 00000KT 10SM CLR M09/M10 A2982 RMK AO2
K21D 100915Z AUTO 00000KT 10SM CLR M09/M10 A2981 RMK AO2
K21D 100855Z AUTO 00000KT 10SM CLR M10/M11 A2981 RMK AO2
K21D 100835Z AUTO 18003KT 10SM CLR M08/M10 A2981 RMK AO2
K21D 100815Z AUTO 00000KT 10SM CLR M07/M09 A2981 RMK AO2
K21D 100755Z AUTO 00000KT 10SM CLR M07/M09 A2982 RMK AO2
K21D 100735Z AUTO 20003KT 10SM CLR M07/M09 A2981 RMK AO2
K21D 100715Z AUTO 19003KT 10SM CLR M07/M09 A2981 RMK AO2
K21D 100655Z AUTO 18003KT 10SM CLR M06/M08 A2982 RMK AO2
K21D 100635Z AUTO 19005KT 10SM CLR M06/M08 A2982 RMK AO2
K21D 100615Z AUTO 19005KT 10SM CLR M06/M08 A2983 RMK AO2
K21D 100555Z AUTO 20007KT 10SM CLR M05/M08 A2984 RMK AO2
K21D 100535Z AUTO 19008KT 10SM SCT080 M05/M08 A2985 RMK AO2
K21D 100515Z AUTO 19010KT 10SM BKN090 M05/M08 A2985 RMK AO2
K21D 100455Z AUTO 18011KT 10SM OVC090 M05/M08 A2987 RMK AO2
K21D 100435Z AUTO 19008KT 10SM OVC090 M05/M08 A2990 RMK AO2
K21D 100415Z AUTO 17007KT 10SM OVC090 M05/M08 A2991 RMK AO2
K21D 100355Z AUTO 19007KT 10SM OVC080 M05/M08 A2992 RMK AO2
K21D 100335Z AUTO 19008KT 10SM SCT070 BKN080 M05/M08 A2992 RMK AO2
K21D 100315Z AUTO 20007KT 10SM BKN070 OVC080 M05/M08 A2994 RMK AO2
K21D 100255Z AUTO 22009KT 10SM BKN080 OVC090 M05/M08 A2997 RMK AO2